Time;durP1;ratioP1;P1;durP2;ratioP2;P2;SDS_P1;SDS_P2;PMS_P1;PMS_P2;Temp;Humidity;BMP_temperature;BMP_pressure;BME280_temperature;BME280_humidity;BME280_pressure;Samples;Min_cycle;Max_cycle;Signal;HPM_P1;HPM_P2
2022/03/01 00:03:34;;;;;;;6.85;4.47;;;20.00;67.40;;;;;;7837577;28;20301;-48
2022/03/01 00:07:19;;;;;;;9.80;4.40;;;19.90;67.30;;;;;;7837819;28;20181;-47
2022/03/01 00:11:05;;;;;;;7.90;3.58;;;19.90;67.20;;;;;;7837963;28;20288;-46
2022/03/01 00:14:50;;;;;;;7.00;4.20;;;19.90;67.30;;;;;;7837694;28;20217;-46
2022/03/01 00:18:36;;;;;;;9.23;4.07;;;19.90;67.30;;;;;;7837639;28;20249;-46
2022/03/01 00:22:21;;;;;;;7.57;4.00;;;19.80;67.20;;;;;;7837205;28;20198;-46
2022/03/01 00:26:07;;;;;;;7.50;4.30;;;19.80;67.10;;;;;;7837498;28;20178;-46
2022/03/01 00:29:52;;;;;;;8.32;4.28;;;19.80;67.10;;;;;;7842162;28;20305;-47
2022/03/01 00:33:37;;;;;;;6.07;4.10;;;19.80;67.00;;;;;;7843434;28;20570;-46
2022/03/01 00:37:23;;;;;;;6.57;3.85;;;19.80;67.10;;;;;;7843301;28;20182;-46
2022/03/01 00:41:08;;;;;;;7.20;4.15;;;19.70;66.90;;;;;;7842889;28;20237;-46
2022/03/01 00:44:54;;;;;;;9.20;4.18;;;19.70;66.90;;;;;;7842927;28;20218;-46
2022/03/01 00:48:39;;;;;;;6.05;3.75;;;19.60;66.80;;;;;;7842861;28;20635;-47
2022/03/01 00:52:25;;;;;;;7.57;4.05;;;19.60;66.80;;;;;;7842546;28;20213;-47
2022/03/01 00:56:10;;;;;;;8.50;4.45;;;19.60;66.90;;;;;;7842836;28;20714;-46
2022/03/01 00:59:56;;;;;;;7.53;4.45;;;19.60;66.90;;;;;;7842518;28;20232;-47
2022/03/01 01:03:41;;;;;;;6.50;4.20;;;19.60;66.80;;;;;;7842376;28;20213;-46
2022/03/01 01:07:27;;;;;;;8.70;4.00;;;19.60;66.80;;;;;;7842551;28;20178;-46
2022/03/01 01:11:13;;;;;;;6.78;4.10;;;19.60;66.80;;;;;;7841811;28;20194;-46
2022/03/01 01:14:58;;;;;;;7.47;4.28;;;19.60;66.70;;;;;;7842287;28;20177;-46
2022/03/01 01:18:52;;;;;;;12.05;5.30;;;19.60;66.60;;;;;;7842152;28;20186;-47
2022/03/01 01:22:40;;;;;;;5.68;4.28;;;19.60;66.50;;;;;;7841024;28;20756;-49
2022/03/01 01:26:26;;;;;;;6.63;4.03;;;19.60;66.50;;;;;;7841877;28;20639;-46
2022/03/01 01:30:14;;;;;;;7.70;4.40;;;19.60;66.50;;;;;;7841396;28;20602;-46
2022/03/01 01:33:59;;;;;;;9.82;4.10;;;19.60;66.50;;;;;;7841631;28;20174;-46
2022/03/01 01:37:45;;;;;;;5.32;3.90;;;19.60;66.40;;;;;;7841464;28;20197;-47
2022/03/01 01:41:30;;;;;;;6.30;3.85;;;19.50;66.30;;;;;;7841063;28;20206;-47
2022/03/01 01:45:16;;;;;;;6.13;4.00;;;19.50;66.40;;;;;;7841231;28;20256;-46
2022/03/01 01:49:01;;;;;;;6.82;4.07;;;19.60;66.40;;;;;;7841202;28;20693;-46
2022/03/01 01:52:49;;;;;;;5.78;3.90;;;19.50;66.40;;;;;;7840836;28;20202;-47
2022/03/01 01:56:35;;;;;;;6.50;3.90;;;19.50;66.30;;;;;;7840967;28;20635;-46
2022/03/01 02:00:20;;;;;;;6.57;4.18;;;19.50;66.30;;;;;;7840504;28;20671;-46
2022/03/01 02:04:06;;;;;;;6.05;4.15;;;19.50;66.30;;;;;;7840562;28;20213;-47
2022/03/01 02:07:51;;;;;;;4.93;3.70;;;19.40;66.20;;;;;;7840600;28;20257;-47
2022/03/01 02:11:37;;;;;;;5.88;4.22;;;19.40;66.20;;;;;;7840364;28;20788;-46
2022/03/01 02:15:23;;;;;;;10.13;3.78;;;19.40;66.20;;;;;;7840791;28;20197;-46
2022/03/01 02:19:13;;;;;;;6.72;4.20;;;19.40;66.20;;;;;;7840415;28;20214;-46
2022/03/01 02:23:01;;;;;;;7.22;4.00;;;19.30;66.10;;;;;;7840193;28;20677;-46
2022/03/01 02:26:46;;;;;;;6.53;3.92;;;19.30;66.10;;;;;;7840203;28;20178;-46
2022/03/01 02:30:33;;;;;;;7.22;4.40;;;19.30;66.10;;;;;;7840017;28;20690;-46
2022/03/01 02:34:18;;;;;;;6.00;3.80;;;19.30;65.80;;;;;;7840072;28;20712;-47
2022/03/01 02:38:05;;;;;;;8.55;4.63;;;19.30;65.80;;;;;;7839880;28;20526;-46
2022/03/01 02:41:50;;;;;;;5.03;3.88;;;19.20;66.00;;;;;;7839276;28;20210;-46
2022/03/01 02:45:36;;;;;;;5.50;4.22;;;19.20;65.90;;;;;;7839595;28;20197;-46
2022/03/01 02:49:21;;;;;;;8.45;4.30;;;19.20;65.90;;;;;;7839081;28;20311;-47
2022/03/01 02:53:07;;;;;;;7.82;3.70;;;19.20;65.80;;;;;;7838768;28;20193;-46
2022/03/01 02:56:53;;;;;;;6.47;4.22;;;19.10;65.80;;;;;;7839214;28;20651;-46
2022/03/01 03:00:39;;;;;;;6.60;4.18;;;19.20;65.80;;;;;;7838987;28;20198;-46
2022/03/01 03:04:24;;;;;;;6.50;3.88;;;19.10;65.60;;;;;;7838939;28;20216;-46
2022/03/01 03:08:10;;;;;;;7.85;3.95;;;19.10;65.70;;;;;;7838868;28;20656;-46
2022/03/01 03:11:56;;;;;;;5.65;3.83;;;19.10;65.50;;;;;;7838539;28;20197;-46
2022/03/01 03:15:41;;;;;;;7.53;4.40;;;19.10;65.50;;;;;;7838538;28;20556;-47
2022/03/01 03:19:26;;;;;;;5.65;3.83;;;19.10;65.50;;;;;;7838459;28;20581;-46
2022/03/01 03:23:12;;;;;;;6.43;3.90;;;19.10;65.50;;;;;;7838444;28;20324;-46
2022/03/01 03:26:58;;;;;;;7.75;3.88;;;19.10;65.40;;;;;;7838459;28;20612;-46
2022/03/01 03:30:43;;;;;;;7.95;3.88;;;19.10;65.50;;;;;;7838021;28;20190;-46
2022/03/01 03:34:29;;;;;;;5.85;3.92;;;19.00;65.40;;;;;;7838261;28;20186;-47
2022/03/01 03:38:15;;;;;;;5.95;4.25;;;19.00;65.10;;;;;;7838324;28;20542;-46
2022/03/01 03:42:00;;;;;;;4.93;3.72;;;19.00;65.10;;;;;;7837768;28;20206;-46
2022/03/01 03:45:46;;;;;;;7.13;3.97;;;19.00;65.40;;;;;;7838126;28;20268;-47
2022/03/01 03:49:32;;;;;;;6.25;4.00;;;19.00;65.10;;;;;;7837815;28;20182;-46
2022/03/01 03:53:18;;;;;;;6.40;4.18;;;19.00;65.10;;;;;;7837949;28;20700;-46
2022/03/01 03:57:08;;;;;;;5.65;3.90;;;19.00;64.80;;;;;;7838005;28;20216;-47
2022/03/01 04:00:54;;;;;;;5.72;3.90;;;19.00;65.20;;;;;;7837786;28;20212;-46
2022/03/01 04:04:39;;;;;;;5.47;3.92;;;19.00;64.80;;;;;;7844394;28;20213;-49
2022/03/01 04:08:25;;;;;;;6.80;3.90;;;18.90;64.60;;;;;;7844611;28;20174;-46
2022/03/01 04:12:10;;;;;;;9.30;4.03;;;19.00;64.20;;;;;;7844128;28;20231;-48
2022/03/01 04:15:56;;;;;;;6.57;4.30;;;19.00;63.70;;;;;;7844697;28;20651;-46
2022/03/01 04:19:41;;;;;;;7.50;3.85;;;19.00;63.40;;;;;;7844564;28;20179;-46
2022/03/01 04:23:27;;;;;;;6.03;4.10;;;18.90;64.00;;;;;;7843722;28;20220;-46
2022/03/01 04:27:13;;;;;;;8.15;4.32;;;18.90;63.10;;;;;;7843784;28;20208;-46
2022/03/01 04:30:59;;;;;;;6.68;4.40;;;18.90;62.50;;;;;;7843240;28;20190;-46
2022/03/01 04:34:44;;;;;;;7.00;4.43;;;18.90;62.20;;;;;;7843397;28;20240;-46
2022/03/01 04:38:30;;;;;;;6.13;3.95;;;18.90;62.00;;;;;;7843233;28;20186;-47
2022/03/01 04:42:16;;;;;;;7.05;4.10;;;19.00;62.00;;;;;;7842723;28;20202;-46
2022/03/01 04:46:03;;;;;;;7.93;4.60;;;19.00;61.80;;;;;;7843167;28;20204;-46
2022/03/01 04:49:48;;;;;;;6.65;4.22;;;19.00;61.70;;;;;;7842621;28;20220;-46
2022/03/01 04:53:35;;;;;;;8.10;4.78;;;19.00;61.80;;;;;;7842767;28;20198;-46
2022/03/01 04:57:21;;;;;;;5.88;4.38;;;19.00;61.60;;;;;;7843111;28;20261;-46
2022/03/01 05:01:06;;;;;;;6.60;4.13;;;19.00;61.60;;;;;;7842223;28;20259;-46
2022/03/01 05:04:52;;;;;;;7.57;4.43;;;19.00;61.40;;;;;;7842465;28;20210;-46
2022/03/01 05:08:37;;;;;;;6.65;4.07;;;19.00;61.40;;;;;;7842480;28;20170;-46
2022/03/01 05:12:23;;;;;;;5.60;3.75;;;19.00;61.40;;;;;;7841881;28;20202;-46
2022/03/01 05:16:08;;;;;;;9.10;4.50;;;19.00;61.30;;;;;;7857971;28;20196;-46
2022/03/01 05:19:54;;;;;;;7.88;4.47;;;19.00;61.40;;;;;;7872135;28;20212;-49
2022/03/01 05:23:39;;;;;;;7.72;4.22;;;19.00;61.80;;;;;;7872386;28;20682;-46
2022/03/01 05:27:25;;;;;;;13.25;4.38;;;19.00;61.40;;;;;;7871602;28;20187;-46
2022/03/01 05:31:10;;;;;;;7.80;4.53;;;19.00;61.60;;;;;;7860486;28;20205;-46
2022/03/01 05:34:56;;;;;;;6.03;4.13;;;19.00;61.20;;;;;;7871768;28;20227;-46
2022/03/01 05:38:43;;;;;;;8.27;3.50;;;19.10;61.10;;;;;;7871790;28;20552;-47
2022/03/01 05:42:28;;;;;;;9.70;4.43;;;19.10;61.10;;;;;;7871757;28;20213;-45
2022/03/01 05:46:14;;;;;;;5.30;3.45;;;19.10;61.20;;;;;;7851570;28;20239;-47
2022/03/01 05:49:59;;;;;;;20.83;4.13;;;19.10;61.80;;;;;;7858943;28;20197;-46
2022/03/01 05:53:46;;;;;;;13.13;4.47;;;19.10;63.00;;;;;;7871093;28;20190;-46
2022/03/01 05:57:32;;;;;;;14.07;5.93;;;19.20;64.80;;;;;;7871053;28;20593;-45
2022/03/01 06:01:18;;;;;;;14.23;5.97;;;19.20;55.60;;;;;;7870728;28;20298;-46
2022/03/01 06:05:03;;;;;;;26.73;5.43;;;18.80;55.00;;;;;;7870641;28;20292;-49
2022/03/01 06:08:49;;;;;;;6.47;4.20;;;18.60;58.70;;;;;;7871087;28;20954;-46
2022/03/01 06:12:35;;;;;;;16.67;5.10;;;18.70;59.80;;;;;;7870492;28;20577;-46
2022/03/01 06:16:20;;;;;;;8.48;4.32;;;18.70;60.00;;;;;;7848797;28;20663;-45
2022/03/01 06:20:08;;;;;;;7.30;3.92;;;18.80;60.10;;;;;;7855369;28;20216;-44
2022/03/01 06:23:55;;;;;;;19.42;4.40;;;18.80;60.30;;;;;;7869363;28;20636;-47
2022/03/01 06:27:41;;;;;;;14.32;4.05;;;18.90;63.50;;;;;;7867085;28;20189;-45
2022/03/01 06:31:26;;;;;;;14.45;4.32;;;19.00;63.80;;;;;;7847280;28;20229;-45
2022/03/01 06:35:12;;;;;;;20.92;4.47;;;19.10;64.40;;;;;;7838661;28;20178;-45
2022/03/01 06:38:57;;;;;;;18.05;3.85;;;19.20;64.50;;;;;;7838927;28;20180;-46
2022/03/01 06:42:43;;;;;;;15.30;4.90;;;19.30;64.60;;;;;;7838272;28;20218;-45
2022/03/01 06:46:28;;;;;;;13.90;3.63;;;19.50;64.50;;;;;;7838120;28;20208;-46
2022/03/01 06:50:14;;;;;;;7.88;3.88;;;19.50;64.60;;;;;;7839218;28;20193;-46
2022/03/01 06:54:00;;;;;;;9.23;3.58;;;19.70;64.60;;;;;;7839055;28;20643;-46
2022/03/01 06:57:46;;;;;;;7.43;3.22;;;19.70;64.50;;;;;;7852521;28;20193;-45
2022/03/01 07:01:31;;;;;;;22.67;3.67;;;19.80;64.30;;;;;;7837696;28;20226;-45
2022/03/01 07:05:17;;;;;;;10.20;3.80;;;19.90;64.40;;;;;;7837234;28;20773;-45
2022/03/01 07:09:03;;;;;;;11.23;3.67;;;20.00;64.40;;;;;;7837451;28;20182;-45
2022/03/01 07:12:48;;;;;;;13.02;3.47;;;20.00;64.20;;;;;;7837736;28;20572;-46
2022/03/01 07:16:34;;;;;;;19.42;3.10;;;20.00;64.20;;;;;;7861853;28;20216;-46
2022/03/01 07:20:19;;;;;;;18.65;3.42;;;20.10;64.20;;;;;;7868402;28;20519;-47
2022/03/01 07:24:05;;;;;;;11.90;3.15;;;20.20;64.20;;;;;;7866317;28;20236;-47
2022/03/01 07:27:53;;;;;;;17.05;3.47;;;20.20;64.20;;;;;;7868250;28;20188;-46
2022/03/01 07:31:38;;;;;;;8.60;3.42;;;20.20;64.10;;;;;;7856296;28;20206;-47
2022/03/01 07:35:25;;;;;;;27.35;3.80;;;20.30;64.10;;;;;;7836979;28;20186;-45
2022/03/01 07:39:10;;;;;;;16.80;3.28;;;20.30;64.30;;;;;;7836864;28;20702;-45
2022/03/01 07:42:56;;;;;;;19.60;3.78;;;20.30;64.40;;;;;;7837157;28;20665;-45
2022/03/01 07:46:41;;;;;;;20.92;4.78;;;20.30;64.50;;;;;;7836802;28;20189;-47
2022/03/01 07:50:28;;;;;;;25.13;4.93;;;20.30;64.60;;;;;;7835591;28;21079;-47
2022/03/01 07:54:13;;;;;;;32.92;4.97;;;20.40;64.70;;;;;;7851469;28;20189;-47
2022/03/01 07:57:59;;;;;;;19.83;5.22;;;20.40;64.60;;;;;;7846289;28;20188;-47
2022/03/01 08:01:44;;;;;;;26.35;6.35;;;20.40;64.40;;;;;;7863537;28;20221;-45
2022/03/01 08:05:30;;;;;;;18.65;4.90;;;20.50;64.50;;;;;;7868121;28;20213;-46
2022/03/01 08:09:15;;;;;;;19.52;5.05;;;20.60;64.60;;;;;;7868261;28;20169;-48
2022/03/01 08:13:01;;;;;;;14.38;4.57;;;20.70;64.70;;;;;;7868104;28;20694;-45
2022/03/01 08:16:46;;;;;;;17.27;4.70;;;20.90;64.70;;;;;;7840943;28;20245;-47
2022/03/01 08:20:32;;;;;;;14.15;4.35;;;21.00;64.70;;;;;;7836603;28;20281;-48
2022/03/01 08:24:17;;;;;;;21.02;4.60;;;21.20;64.40;;;;;;7836722;28;20209;-45
2022/03/01 08:28:03;;;;;;;23.63;4.57;;;21.40;64.40;;;;;;7836762;28;20186;-47
2022/03/01 08:31:49;;;;;;;19.23;4.00;;;21.60;64.40;;;;;;7864193;28;20232;-46
2022/03/01 08:35:35;;;;;;;14.23;4.30;;;21.80;64.30;;;;;;7867330;28;20180;-46
2022/03/01 08:39:20;;;;;;;11.90;3.80;;;22.00;64.10;;;;;;7867105;28;20531;-45
2022/03/01 08:43:08;;;;;;;15.88;3.80;;;22.10;64.00;;;;;;7867256;28;20208;-45
2022/03/01 08:46:53;;;;;;;14.25;3.92;;;22.30;63.80;;;;;;7838484;28;20174;-45
2022/03/01 08:50:39;;;;;;;24.08;4.72;;;22.50;63.80;;;;;;7839845;28;20209;-45
2022/03/01 08:54:24;;;;;;;23.20;4.10;;;22.60;63.60;;;;;;7841941;28;20182;-47
2022/03/01 08:58:10;;;;;;;21.58;4.13;;;22.70;63.50;;;;;;7840452;28;20197;-46
2022/03/01 09:01:55;;;;;;;17.92;3.78;;;22.70;63.50;;;;;;7870386;28;20217;-45
2022/03/01 09:05:41;;;;;;;23.75;3.92;;;22.80;63.40;;;;;;7872292;28;20188;-47
2022/03/01 09:09:26;;;;;;;17.77;3.78;;;22.90;63.50;;;;;;7861129;28;20593;-47
2022/03/01 09:13:12;;;;;;;22.27;4.10;;;23.00;63.50;;;;;;7872333;28;20205;-45
2022/03/01 09:16:57;;;;;;;22.17;3.45;;;23.10;63.30;;;;;;7839926;28;20190;-48
2022/03/01 09:20:43;;;;;;;17.42;3.67;;;23.10;63.20;;;;;;7841059;28;20336;-47
2022/03/01 09:24:29;;;;;;;19.65;4.10;;;23.20;63.30;;;;;;7841271;28;20205;-46
2022/03/01 09:28:14;;;;;;;11.63;3.58;;;23.20;63.30;;;;;;7840491;28;20185;-45
2022/03/01 09:32:00;;;;;;;12.57;3.05;;;23.30;63.30;;;;;;7840379;28;20210;-47
2022/03/01 09:35:47;;;;;;;11.63;3.50;;;23.30;63.40;;;;;;7840680;28;20181;-50
2022/03/01 09:39:32;;;;;;;11.13;3.47;;;23.30;63.30;;;;;;7840548;28;20162;-48
2022/03/01 09:43:20;;;;;;;18.40;3.85;;;23.30;63.00;;;;;;7840743;28;20259;-48
2022/03/01 09:47:06;;;;;;;9.18;3.15;;;23.30;62.80;;;;;;7873073;28;20585;-47
2022/03/01 09:50:52;;;;;;;9.55;3.35;;;23.40;62.90;;;;;;7872961;28;20254;-45
2022/03/01 09:54:37;;;;;;;17.50;3.92;;;23.40;63.00;;;;;;7871417;28;20169;-46
2022/03/01 09:58:23;;;;;;;10.95;3.40;;;23.50;63.00;;;;;;7869942;28;20212;-48
2022/03/01 10:02:09;;;;;;;9.27;3.33;;;23.50;62.90;;;;;;7839556;28;20657;-47
2022/03/01 10:06:08;;;;;;;9.13;3.22;;;23.50;62.80;;;;;;7839460;28;20182;-48
2022/03/01 10:10:02;;;;;;;11.90;3.33;;;23.50;62.50;;;;;;7839568;28;20174;-46
2022/03/01 10:13:55;;;;;;;14.40;3.22;;;23.60;62.70;;;;;;7844348;28;20213;-45
2022/03/01 10:17:43;;;;;;;8.40;3.03;;;23.60;62.70;;;;;;7870134;28;20185;-48
2022/03/01 10:21:29;;;;;;;11.50;3.40;;;23.60;62.50;;;;;;7865262;28;20659;-47
2022/03/01 10:25:20;;;;;;;7.35;3.50;;;23.60;62.40;;;;;;7839130;28;20201;-47
2022/03/01 10:29:08;;;;;;;5.93;3.17;;;23.60;62.20;;;;;;7846229;28;20192;-46
2022/03/01 10:33:15;;;;;;;11.43;3.50;;;23.60;62.10;;;;;;7870212;28;20254;-50
2022/03/01 10:37:00;;;;;;;9.32;3.42;;;23.60;62.00;;;;;;7869941;28;20256;-46
2022/03/01 10:40:46;;;;;;;10.18;3.80;;;23.60;61.80;;;;;;7869558;28;20687;-48
2022/03/01 10:44:31;;;;;;;7.57;3.45;;;23.50;60.80;;;;;;7857928;28;20229;-44
2022/03/01 10:48:34;;;;;;;11.52;4.15;;;23.50;61.50;;;;;;7838401;28;20531;-46
2022/03/01 10:52:19;;;;;;;5.18;3.33;;;23.40;59.90;;;;;;7838186;28;20202;-47
2022/03/01 10:56:10;;;;;;;7.75;3.42;;;23.40;61.30;;;;;;7838477;28;20193;-46
2022/03/01 10:59:56;;;;;;;9.88;3.53;;;23.40;61.60;;;;;;7848121;28;20182;-49
2022/03/01 11:03:42;;;;;;;16.48;5.13;;;23.30;62.00;;;;;;7838095;28;20225;-45
2022/03/01 11:07:29;;;;;;;10.80;5.38;;;23.30;59.30;;;;;;7838091;28;20184;-45
2022/03/01 11:11:15;;;;;;;15.38;5.45;;;23.10;59.00;;;;;;7837229;28;20225;-45
2022/03/01 11:15:35;;;;;;;25.33;6.43;;;23.00;58.90;;;;;;7853826;28;20189;-45
2022/03/01 11:19:29;;;;;;;14.75;5.32;;;22.90;60.20;;;;;;7806816;28;20251;-46
2022/03/01 11:23:21;;;;;;;13.35;5.28;;;22.90;60.30;;;;;;7837619;28;20208;-46
2022/03/01 11:27:08;;;;;;;10.65;5.78;;;22.90;60.80;;;;;;7837562;28;20584;-46
2022/03/01 11:30:53;;;;;;;18.30;5.97;;;23.00;61.10;;;;;;7860678;28;20205;-47
2022/03/01 11:34:40;;;;;;;11.82;5.22;;;23.00;61.30;;;;;;7868268;28;20264;-45
2022/03/01 11:38:29;;;;;;;18.00;5.40;;;23.10;61.20;;;;;;7868418;28;20181;-45
2022/03/01 11:42:20;;;;;;;21.52;4.97;;;23.10;61.20;;;;;;7867938;28;20232;-47
2022/03/01 11:46:17;;;;;;;22.63;5.57;;;23.20;61.50;;;;;;7842497;28;20193;-46
2022/03/01 11:50:18;;;;;;;26.98;5.22;;;23.30;62.00;;;;;;7837986;28;20178;-46
2022/03/01 11:54:17;;;;;;;16.27;5.13;;;23.20;62.20;;;;;;7837423;28;20181;-46
2022/03/01 11:58:03;;;;;;;20.42;5.70;;;23.30;63.30;;;;;;7836695;28;20182;-48
2022/03/01 12:01:51;;;;;;;17.73;4.70;;;23.40;62.30;;;;;;7842105;28;20221;-45
2022/03/01 12:05:38;;;;;;;21.08;5.65;;;23.40;62.50;;;;;;7860896;28;20213;-45
2022/03/01 12:09:25;;;;;;;22.85;4.35;;;23.40;62.60;;;;;;7867583;28;20184;-45
2022/03/01 12:13:11;;;;;;;19.20;4.70;;;23.40;62.70;;;;;;7865914;28;20198;-47
2022/03/01 12:16:56;;;;;;;14.85;4.00;;;23.50;62.80;;;;;;7836709;28;20196;-45
2022/03/01 12:20:45;;;;;;;12.98;4.57;;;23.50;62.80;;;;;;7860444;28;20237;-46
2022/03/01 12:24:30;;;;;;;15.13;4.50;;;23.50;62.80;;;;;;7870460;28;20205;-47
2022/03/01 12:28:18;;;;;;;24.95;4.63;;;23.60;62.90;;;;;;7870990;28;20659;-47
2022/03/01 12:32:06;;;;;;;15.63;4.80;;;23.50;63.00;;;;;;7842459;28;20198;-47
2022/03/01 12:36:03;;;;;;;12.55;4.13;;;23.50;63.10;;;;;;7842745;28;20177;-49
2022/03/01 12:39:49;;;;;;;12.38;3.88;;;23.50;62.70;;;;;;7843172;28;20173;-48
2022/03/01 12:43:34;;;;;;;11.23;4.30;;;23.50;63.10;;;;;;7847775;28;20205;-46
2022/03/01 12:47:20;;;;;;;10.10;3.78;;;23.50;63.10;;;;;;7857290;28;20652;-45
2022/03/01 12:51:05;;;;;;;10.40;3.83;;;23.50;63.10;;;;;;7841649;28;20190;-46
2022/03/01 12:54:51;;;;;;;10.38;4.05;;;23.40;63.30;;;;;;7841920;28;20182;-46
2022/03/01 12:58:37;;;;;;;14.05;3.95;;;23.40;63.40;;;;;;7848147;28;20311;-46
2022/03/01 13:02:22;;;;;;;11.50;3.58;;;23.30;63.50;;;;;;7872502;28;20213;-45
2022/03/01 13:06:11;;;;;;;15.00;3.83;;;23.30;63.70;;;;;;7872416;28;20192;-45
2022/03/01 13:10:00;;;;;;;6.88;3.38;;;23.30;63.70;;;;;;7872033;28;20169;-45
2022/03/01 13:13:48;;;;;;;7.53;3.90;;;23.30;63.80;;;;;;7863834;28;20630;-45
2022/03/01 13:17:35;;;;;;;10.52;3.70;;;23.30;63.80;;;;;;7841315;28;20680;-45
2022/03/01 13:21:25;;;;;;;9.80;3.92;;;23.20;63.90;;;;;;7838399;28;20258;-45
2022/03/01 13:25:11;;;;;;;6.75;4.03;;;23.20;64.00;;;;;;7840120;28;20209;-45
2022/03/01 13:29:08;;;;;;;6.38;3.50;;;23.20;64.10;;;;;;7850429;28;20234;-45
2022/03/01 13:33:03;;;;;;;8.95;3.30;;;23.20;64.10;;;;;;7871636;28;20193;-45
2022/03/01 13:36:50;;;;;;;6.47;3.78;;;23.20;64.10;;;;;;7871010;28;20223;-46
2022/03/01 13:40:42;;;;;;;13.65;5.18;;;23.10;63.90;;;;;;7871352;28;20199;-46
2022/03/01 13:44:29;;;;;;;13.50;4.78;;;23.00;64.00;;;;;;7857417;28;20312;-46
2022/03/01 13:48:17;;;;;;;9.25;4.40;;;23.10;63.90;;;;;;7840192;28;20180;-45
2022/03/01 13:52:27;;;;;;;9.05;4.50;;;23.00;63.80;;;;;;7839960;28;20194;-46
2022/03/01 13:56:13;;;;;;;8.50;4.70;;;23.00;63.80;;;;;;7840080;28;20178;-46
2022/03/01 14:00:00;;;;;;;9.00;4.22;;;23.00;63.70;;;;;;7853139;28;20174;-46
2022/03/01 14:03:46;;;;;;;9.75;4.10;;;23.00;63.70;;;;;;7839664;28;20648;-45
2022/03/01 14:07:32;;;;;;;13.88;4.40;;;23.10;63.60;;;;;;7839847;28;20658;-47
2022/03/01 14:11:18;;;;;;;14.63;4.15;;;23.20;63.70;;;;;;7839662;28;20190;-46
2022/03/01 14:15:06;;;;;;;6.35;3.75;;;23.20;63.50;;;;;;7857450;28;20181;-45
2022/03/01 14:18:59;;;;;;;9.02;4.07;;;23.30;63.50;;;;;;7839994;28;20845;-47
2022/03/01 14:22:45;;;;;;;6.70;4.05;;;23.40;63.40;;;;;;7839304;28;20210;-49
2022/03/01 14:26:30;;;;;;;9.68;3.83;;;23.50;63.40;;;;;;7839035;28;20193;-46
2022/03/01 14:30:16;;;;;;;10.60;3.85;;;23.60;63.30;;;;;;7838674;28;20651;-47
2022/03/01 14:34:02;;;;;;;8.32;3.65;;;23.60;63.20;;;;;;7839039;28;20671;-47
2022/03/01 14:37:48;;;;;;;7.97;3.60;;;23.70;63.00;;;;;;7861863;28;20181;-47
2022/03/01 14:41:33;;;;;;;11.60;4.25;;;23.70;63.00;;;;;;7847845;28;20258;-46
2022/03/01 14:45:19;;;;;;;9.10;3.50;;;23.80;63.20;;;;;;7868958;28;20213;-46
2022/03/01 14:49:04;;;;;;;10.07;4.15;;;23.80;63.00;;;;;;7869100;28;20238;-47
2022/03/01 14:52:50;;;;;;;11.93;3.70;;;23.90;62.90;;;;;;7867498;28;20208;-46
2022/03/01 14:56:38;;;;;;;13.10;4.25;;;23.90;62.80;;;;;;7869204;28;20252;-46
2022/03/01 15:00:23;;;;;;;11.38;3.63;;;23.90;62.90;;;;;;7868902;28;20209;-47
2022/03/01 15:04:09;;;;;;;10.05;3.85;;;23.90;62.80;;;;;;7839925;28;20217;-48
2022/03/01 15:07:55;;;;;;;12.82;4.13;;;23.90;62.90;;;;;;7855063;28;20189;-47
2022/03/01 15:11:42;;;;;;;15.27;3.85;;;23.90;63.40;;;;;;7869263;28;20189;-48
2022/03/01 15:15:28;;;;;;;12.35;3.90;;;23.80;63.10;;;;;;7868227;28;20178;-47
2022/03/01 15:19:14;;;;;;;11.77;3.60;;;23.80;63.00;;;;;;7837034;28;20274;-48
2022/03/01 15:22:59;;;;;;;13.90;3.65;;;23.70;63.00;;;;;;7835922;28;20221;-48
2022/03/01 15:26:45;;;;;;;9.25;3.70;;;23.70;63.00;;;;;;7838677;28;20242;-48
2022/03/01 15:30:30;;;;;;;13.60;4.15;;;23.50;60.00;;;;;;7865843;28;20204;-46
2022/03/01 15:34:16;;;;;;;23.98;4.80;;;23.50;62.80;;;;;;7869403;28;20184;-47
2022/03/01 15:38:03;;;;;;;15.18;3.83;;;23.40;62.80;;;;;;7869086;28;20188;-49
2022/03/01 15:41:49;;;;;;;10.18;4.32;;;23.40;62.90;;;;;;7854043;28;20206;-46
2022/03/01 15:45:35;;;;;;;10.43;3.70;;;23.40;62.80;;;;;;7851391;28;20210;-47
2022/03/01 15:49:20;;;;;;;12.68;3.88;;;23.40;62.90;;;;;;7850154;28;20182;-49
2022/03/01 15:53:05;;;;;;;8.00;3.80;;;23.40;62.90;;;;;;7851245;28;20205;-47
2022/03/01 15:56:51;;;;;;;11.57;3.63;;;23.30;62.90;;;;;;7850535;28;20208;-46
2022/03/01 16:00:37;;;;;;;15.23;3.63;;;23.30;62.90;;;;;;7856794;28;20727;-47
2022/03/01 16:04:23;;;;;;;16.13;5.25;;;23.20;63.00;;;;;;7858455;28;20295;-47
2022/03/01 16:08:09;;;;;;;26.92;6.47;;;23.20;62.80;;;;;;7856889;28;20675;-47
2022/03/01 16:11:54;;;;;;;15.43;5.18;;;23.10;62.90;;;;;;7858604;28;20197;-47
2022/03/01 16:15:42;;;;;;;22.45;5.25;;;23.10;63.10;;;;;;7859305;28;20845;-47
2022/03/01 16:19:27;;;;;;;23.98;5.78;;;23.00;62.70;;;;;;7859173;28;20203;-47
2022/03/01 16:23:13;;;;;;;20.83;4.82;;;23.00;63.80;;;;;;7851699;28;20247;-47
2022/03/01 16:26:59;;;;;;;22.20;6.03;;;22.90;63.10;;;;;;7873542;28;20173;-47
2022/03/01 16:30:44;;;;;;;23.60;5.05;;;22.90;63.10;;;;;;7873473;28;20197;-47
2022/03/01 16:34:31;;;;;;;26.05;4.88;;;22.90;63.10;;;;;;7874536;28;20184;-46
2022/03/01 16:38:17;;;;;;;20.27;5.18;;;22.90;63.30;;;;;;7874473;28;20173;-46
2022/03/01 16:42:03;;;;;;;26.02;4.88;;;22.80;58.90;;;;;;7873987;28;20208;-48
2022/03/01 16:45:48;;;;;;;19.02;5.35;;;22.80;61.60;;;;;;7874233;28;20201;-47
2022/03/01 16:49:35;;;;;;;14.85;4.80;;;22.80;61.60;;;;;;7873592;28;20748;-47
2022/03/01 16:53:21;;;;;;;10.75;4.32;;;22.90;61.70;;;;;;7873844;28;20189;-48
2022/03/01 16:57:17;;;;;;;12.95;4.25;;;23.00;61.70;;;;;;7872916;28;20177;-48
2022/03/01 17:01:04;;;;;;;24.33;4.78;;;23.10;61.60;;;;;;7871311;28;20215;-47
2022/03/01 17:04:49;;;;;;;20.67;4.05;;;23.20;61.80;;;;;;7866238;28;20213;-47
2022/03/01 17:08:36;;;;;;;12.98;4.00;;;23.20;61.80;;;;;;7841852;28;20186;-48
2022/03/01 17:12:21;;;;;;;17.55;4.05;;;23.30;61.80;;;;;;7841552;28;20190;-46
2022/03/01 17:16:07;;;;;;;13.43;4.03;;;23.30;61.60;;;;;;7842411;28;20235;-47
2022/03/01 17:19:52;;;;;;;19.83;4.63;;;23.40;61.70;;;;;;7841959;28;20185;-48
2022/03/01 17:23:39;;;;;;;11.23;4.28;;;23.40;61.50;;;;;;7842047;28;20264;-46
2022/03/01 17:27:25;;;;;;;8.13;3.63;;;23.40;61.60;;;;;;7842503;28;20194;-47
2022/03/01 17:31:11;;;;;;;11.30;3.55;;;23.40;61.60;;;;;;7841480;28;20201;-48
2022/03/01 17:34:57;;;;;;;8.07;3.47;;;23.40;61.50;;;;;;7842323;28;20204;-47
2022/03/01 17:38:42;;;;;;;9.90;3.70;;;23.40;61.60;;;;;;7842301;28;20177;-46
2022/03/01 17:42:28;;;;;;;6.90;3.88;;;23.40;61.60;;;;;;7841523;28;20205;-47
2022/03/01 17:46:14;;;;;;;8.40;4.00;;;23.40;62.50;;;;;;7841876;28;20181;-47
2022/03/01 17:49:59;;;;;;;13.65;4.63;;;23.40;61.50;;;;;;7840840;28;20224;-50
2022/03/01 17:53:45;;;;;;;9.48;3.50;;;23.40;61.50;;;;;;7840709;28;20315;-48
2022/03/01 17:57:30;;;;;;;6.25;3.60;;;23.40;61.60;;;;;;7851179;28;20182;-47
2022/03/01 18:01:16;;;;;;;26.27;16.83;;;23.40;61.40;;;;;;7840611;28;20232;-46
2022/03/01 18:05:02;;;;;;;22.00;15.80;;;23.40;61.50;;;;;;7848765;28;20216;-49
2022/03/01 18:08:47;;;;;;;27.88;15.07;;;23.40;61.60;;;;;;7871459;28;20537;-47
2022/03/01 18:12:33;;;;;;;20.13;13.65;;;23.40;61.60;;;;;;7846877;28;20689;-47
2022/03/01 18:16:19;;;;;;;20.92;13.63;;;23.40;61.70;;;;;;7865670;28;20235;-46
2022/03/01 18:20:05;;;;;;;15.77;11.48;;;23.50;61.70;;;;;;7871070;28;20205;-49
2022/03/01 18:23:51;;;;;;;27.10;11.43;;;23.50;61.70;;;;;;7855507;28;20198;-48
2022/03/01 18:27:38;;;;;;;19.90;11.15;;;23.60;61.70;;;;;;7840095;28;20174;-47
2022/03/01 18:31:24;;;;;;;19.42;10.93;;;23.70;61.60;;;;;;7839301;28;20198;-47
2022/03/01 18:35:09;;;;;;;18.17;9.95;;;23.70;61.60;;;;;;7839986;28;20185;-48
2022/03/01 18:38:55;;;;;;;13.52;9.63;;;23.80;61.60;;;;;;7839353;28;20213;-46
2022/03/01 18:42:41;;;;;;;17.65;8.77;;;23.90;61.40;;;;;;7841347;28;20205;-47
2022/03/01 18:46:26;;;;;;;18.88;8.93;;;23.90;61.30;;;;;;7864135;28;20189;-48
2022/03/01 18:50:16;;;;;;;15.80;8.65;;;24.00;61.40;;;;;;7868456;28;20188;-49
2022/03/01 18:54:02;;;;;;;17.02;7.95;;;24.10;61.60;;;;;;7846825;28;20589;-47
2022/03/01 18:57:47;;;;;;;21.65;8.30;;;24.20;61.80;;;;;;7839323;28;20212;-46
2022/03/01 19:01:33;;;;;;;18.23;7.13;;;24.20;61.80;;;;;;7838664;28;20217;-49
2022/03/01 19:05:20;;;;;;;17.13;7.40;;;24.30;62.00;;;;;;7839084;28;20202;-47
2022/03/01 19:09:07;;;;;;;20.85;7.38;;;24.30;62.10;;;;;;7838443;28;20174;-49
2022/03/01 19:12:53;;;;;;;14.48;6.88;;;24.30;62.30;;;;;;7838512;28;20209;-47
2022/03/01 19:16:39;;;;;;;16.75;6.38;;;24.30;62.40;;;;;;7838754;28;20214;-46
2022/03/01 19:20:25;;;;;;;14.10;6.75;;;24.30;62.40;;;;;;7860880;28;20177;-47
2022/03/01 19:24:11;;;;;;;15.55;6.20;;;24.30;62.40;;;;;;7869529;28;20200;-47
2022/03/01 19:27:57;;;;;;;14.65;6.38;;;24.20;62.40;;;;;;7869567;28;20185;-47
2022/03/01 19:31:42;;;;;;;11.07;6.00;;;24.20;62.60;;;;;;7868811;28;20227;-47